sensor_id;sensor_type;location;lat;lon;timestamp;P1;durP1;ratioP1;P2;durP2;ratioP2
24439;SDS011;12618;54.386;18.394;2023-12-28T00:00:59;25.00;;;8.70;;
24439;SDS011;12618;54.386;18.394;2023-12-28T00:03:31;24.30;;;7.60;;
24439;SDS011;12618;54.386;18.394;2023-12-28T00:06:03;22.00;;;7.60;;
24439;SDS011;12618;54.386;18.394;2023-12-28T00:08:35;18.30;;;7.20;;
24439;SDS011;12618;54.386;18.394;2023-12-28T00:11:07;19.10;;;7.40;;
24439;SDS011;12618;54.386;18.394;2023-12-28T00:13:39;14.60;;;7.40;;
24439;SDS011;12618;54.386;18.394;2023-12-28T00:16:11;18.90;;;7.80;;
24439;SDS011;12618;54.386;18.394;2023-12-28T00:18:42;20.80;;;7.70;;
24439;SDS011;12618;54.386;18.394;2023-12-28T00:21:14;19.60;;;7.80;;
24439;SDS011;12618;54.386;18.394;2023-12-28T00:23:46;24.50;;;8.70;;
24439;SDS011;12618;54.386;18.394;2023-12-28T00:26:18;20.70;;;7.80;;
24439;SDS011;12618;54.386;18.394;2023-12-28T00:28:53;20.40;;;8.60;;
24439;SDS011;12618;54.386;18.394;2023-12-28T00:31:24;24.00;;;8.50;;
24439;SDS011;12618;54.386;18.394;2023-12-28T00:33:56;20.30;;;8.30;;
24439;SDS011;12618;54.386;18.394;2023-12-28T00:36:28;22.60;;;8.20;;
24439;SDS011;12618;54.386;18.394;2023-12-28T00:39:00;22.00;;;8.20;;
24439;SDS011;12618;54.386;18.394;2023-12-28T00:41:32;21.60;;;8.80;;
24439;SDS011;12618;54.386;18.394;2023-12-28T00:44:04;21.20;;;8.60;;
24439;SDS011;12618;54.386;18.394;2023-12-28T00:46:37;24.00;;;9.60;;
24439;SDS011;12618;54.386;18.394;2023-12-28T00:49:08;21.90;;;9.40;;
24439;SDS011;12618;54.386;18.394;2023-12-28T00:51:41;23.90;;;9.60;;
24439;SDS011;12618;54.386;18.394;2023-12-28T00:54:13;19.50;;;10.60;;
24439;SDS011;12618;54.386;18.394;2023-12-28T00:56:45;26.60;;;11.50;;
24439;SDS011;12618;54.386;18.394;2023-12-28T00:59:17;27.30;;;11.20;;
24439;SDS011;12618;54.386;18.394;2023-12-28T01:01:49;29.00;;;10.20;;
24439;SDS011;12618;54.386;18.394;2023-12-28T01:04:21;26.10;;;10.60;;
24439;SDS011;12618;54.386;18.394;2023-12-28T01:06:56;20.50;;;10.30;;
24439;SDS011;12618;54.386;18.394;2023-12-28T01:09:28;26.80;;;11.20;;
24439;SDS011;12618;54.386;18.394;2023-12-28T01:12:00;26.70;;;11.90;;
24439;SDS011;12618;54.386;18.394;2023-12-28T01:14:32;24.60;;;11.70;;
24439;SDS011;12618;54.386;18.394;2023-12-28T01:17:03;26.70;;;11.80;;
24439;SDS011;12618;54.386;18.394;2023-12-28T01:19:35;29.50;;;13.20;;
24439;SDS011;12618;54.386;18.394;2023-12-28T01:22:07;25.40;;;12.50;;
24439;SDS011;12618;54.386;18.394;2023-12-28T01:24:39;28.40;;;13.10;;
24439;SDS011;12618;54.386;18.394;2023-12-28T01:27:10;26.70;;;13.30;;
24439;SDS011;12618;54.386;18.394;2023-12-28T01:29:42;27.90;;;13.30;;
24439;SDS011;12618;54.386;18.394;2023-12-28T01:32:14;27.50;;;13.30;;
24439;SDS011;12618;54.386;18.394;2023-12-28T01:34:45;34.30;;;14.30;;
24439;SDS011;12618;54.386;18.394;2023-12-28T01:37:17;27.50;;;13.80;;
24439;SDS011;12618;54.386;18.394;2023-12-28T01:39:49;33.80;;;14.60;;
24439;SDS011;12618;54.386;18.394;2023-12-28T01:42:21;37.00;;;14.20;;
24439;SDS011;12618;54.386;18.394;2023-12-28T01:44:53;30.80;;;14.00;;
24439;SDS011;12618;54.386;18.394;2023-12-28T01:50:18;27.90;;;13.50;;
24439;SDS011;12618;54.386;18.394;2023-12-28T01:52:52;36.60;;;14.90;;
24439;SDS011;12618;54.386;18.394;2023-12-28T01:55:26;30.60;;;14.20;;
24439;SDS011;12618;54.386;18.394;2023-12-28T01:57:59;25.90;;;13.50;;
24439;SDS011;12618;54.386;18.394;2023-12-28T02:00:32;28.80;;;12.70;;
24439;SDS011;12618;54.386;18.394;2023-12-28T02:03:06;28.10;;;13.40;;
24439;SDS011;12618;54.386;18.394;2023-12-28T02:05:38;30.90;;;13.40;;
24439;SDS011;12618;54.386;18.394;2023-12-28T02:08:10;33.40;;;14.60;;
24439;SDS011;12618;54.386;18.394;2023-12-28T02:10:42;35.30;;;14.30;;
24439;SDS011;12618;54.386;18.394;2023-12-28T02:13:14;25.10;;;12.90;;
24439;SDS011;12618;54.386;18.394;2023-12-28T02:15:46;30.00;;;13.20;;
24439;SDS011;12618;54.386;18.394;2023-12-28T02:18:23;27.20;;;13.10;;
24439;SDS011;12618;54.386;18.394;2023-12-28T02:21:02;29.30;;;12.90;;
24439;SDS011;12618;54.386;18.394;2023-12-28T02:23:34;31.40;;;13.10;;
24439;SDS011;12618;54.386;18.394;2023-12-28T02:26:06;26.80;;;13.40;;
24439;SDS011;12618;54.386;18.394;2023-12-28T02:28:38;28.60;;;13.80;;
24439;SDS011;12618;54.386;18.394;2023-12-28T02:31:11;29.60;;;13.80;;
24439;SDS011;12618;54.386;18.394;2023-12-28T02:33:54;30.30;;;14.00;;
24439;SDS011;12618;54.386;18.394;2023-12-28T02:36:32;34.70;;;14.90;;
24439;SDS011;12618;54.386;18.394;2023-12-28T02:39:08;30.30;;;14.90;;
24439;SDS011;12618;54.386;18.394;2023-12-28T02:41:43;33.70;;;15.80;;
24439;SDS011;12618;54.386;18.394;2023-12-28T02:44:16;36.00;;;17.90;;
24439;SDS011;12618;54.386;18.394;2023-12-28T02:46:49;35.60;;;17.80;;
24439;SDS011;12618;54.386;18.394;2023-12-28T02:49:21;39.10;;;18.30;;
24439;SDS011;12618;54.386;18.394;2023-12-28T02:51:53;40.50;;;19.40;;
24439;SDS011;12618;54.386;18.394;2023-12-28T02:54:25;41.90;;;19.40;;
24439;SDS011;12618;54.386;18.394;2023-12-28T02:56:57;42.90;;;18.60;;
24439;SDS011;12618;54.386;18.394;2023-12-28T02:59:28;38.50;;;18.80;;
24439;SDS011;12618;54.386;18.394;2023-12-28T03:02:00;46.30;;;19.80;;
24439;SDS011;12618;54.386;18.394;2023-12-28T03:04:32;42.80;;;18.70;;
24439;SDS011;12618;54.386;18.394;2023-12-28T03:07:04;38.60;;;18.60;;
24439;SDS011;12618;54.386;18.394;2023-12-28T03:09:36;44.40;;;20.70;;
24439;SDS011;12618;54.386;18.394;2023-12-28T03:12:09;38.00;;;19.10;;
24439;SDS011;12618;54.386;18.394;2023-12-28T03:14:41;42.40;;;19.90;;
24439;SDS011;12618;54.386;18.394;2023-12-28T03:17:13;43.90;;;20.60;;
24439;SDS011;12618;54.386;18.394;2023-12-28T03:19:45;44.40;;;20.50;;
24439;SDS011;12618;54.386;18.394;2023-12-28T03:22:17;47.30;;;22.40;;
24439;SDS011;12618;54.386;18.394;2023-12-28T03:24:49;37.80;;;20.10;;
24439;SDS011;12618;54.386;18.394;2023-12-28T03:27:22;47.10;;;22.30;;
24439;SDS011;12618;54.386;18.394;2023-12-28T03:29:54;51.10;;;22.50;;
24439;SDS011;12618;54.386;18.394;2023-12-28T03:32:25;45.00;;;23.60;;
24439;SDS011;12618;54.386;18.394;2023-12-28T03:34:57;43.30;;;21.80;;
24439;SDS011;12618;54.386;18.394;2023-12-28T03:37:29;45.00;;;23.10;;
24439;SDS011;12618;54.386;18.394;2023-12-28T03:40:01;44.10;;;23.10;;
24439;SDS011;12618;54.386;18.394;2023-12-28T03:42:33;55.10;;;24.00;;
24439;SDS011;12618;54.386;18.394;2023-12-28T03:45:05;48.60;;;23.00;;
24439;SDS011;12618;54.386;18.394;2023-12-28T03:47:37;52.30;;;24.40;;
24439;SDS011;12618;54.386;18.394;2023-12-28T03:50:09;47.90;;;24.70;;
24439;SDS011;12618;54.386;18.394;2023-12-28T03:52:40;52.40;;;25.30;;
24439;SDS011;12618;54.386;18.394;2023-12-28T03:55:12;52.40;;;27.00;;
24439;SDS011;12618;54.386;18.394;2023-12-28T03:57:44;52.50;;;25.40;;
24439;SDS011;12618;54.386;18.394;2023-12-28T04:00:18;47.30;;;23.70;;
24439;SDS011;12618;54.386;18.394;2023-12-28T04:02:52;43.80;;;23.60;;
24439;SDS011;12618;54.386;18.394;2023-12-28T04:05:24;47.20;;;22.50;;
24439;SDS011;12618;54.386;18.394;2023-12-28T04:07:56;43.20;;;22.50;;
24439;SDS011;12618;54.386;18.394;2023-12-28T04:10:28;48.20;;;22.90;;
24439;SDS011;12618;54.386;18.394;2023-12-28T04:13:03;44.30;;;24.00;;
24439;SDS011;12618;54.386;18.394;2023-12-28T04:15:35;48.00;;;23.40;;
24439;SDS011;12618;54.386;18.394;2023-12-28T04:18:07;43.70;;;21.40;;
24439;SDS011;12618;54.386;18.394;2023-12-28T04:20:41;44.20;;;21.90;;
24439;SDS011;12618;54.386;18.394;2023-12-28T04:23:14;42.90;;;21.10;;
24439;SDS011;12618;54.386;18.394;2023-12-28T04:25:46;40.10;;;21.20;;
24439;SDS011;12618;54.386;18.394;2023-12-28T04:28:18;46.10;;;22.00;;
24439;SDS011;12618;54.386;18.394;2023-12-28T04:30:50;38.30;;;20.50;;
24439;SDS011;12618;54.386;18.394;2023-12-28T04:33:22;43.80;;;20.80;;
24439;SDS011;12618;54.386;18.394;2023-12-28T04:35:54;42.30;;;20.90;;
24439;SDS011;12618;54.386;18.394;2023-12-28T04:38:26;39.30;;;20.00;;
24439;SDS011;12618;54.386;18.394;2023-12-28T04:40:58;40.20;;;19.80;;
24439;SDS011;12618;54.386;18.394;2023-12-28T04:43:31;38.40;;;19.50;;
24439;SDS011;12618;54.386;18.394;2023-12-28T04:46:03;37.80;;;19.10;;
24439;SDS011;12618;54.386;18.394;2023-12-28T04:48:35;39.00;;;19.30;;
24439;SDS011;12618;54.386;18.394;2023-12-28T04:51:08;39.10;;;18.80;;
24439;SDS011;12618;54.386;18.394;2023-12-28T04:53:40;41.50;;;19.00;;
24439;SDS011;12618;54.386;18.394;2023-12-28T04:56:11;37.50;;;18.80;;
24439;SDS011;12618;54.386;18.394;2023-12-28T04:58:43;35.80;;;18.00;;
24439;SDS011;12618;54.386;18.394;2023-12-28T05:01:15;35.10;;;18.10;;
24439;SDS011;12618;54.386;18.394;2023-12-28T05:03:47;34.70;;;18.10;;
24439;SDS011;12618;54.386;18.394;2023-12-28T05:06:19;33.00;;;17.40;;
24439;SDS011;12618;54.386;18.394;2023-12-28T05:08:51;34.60;;;17.70;;
24439;SDS011;12618;54.386;18.394;2023-12-28T05:11:23;33.60;;;17.20;;
24439;SDS011;12618;54.386;18.394;2023-12-28T05:13:54;39.50;;;18.30;;
24439;SDS011;12618;54.386;18.394;2023-12-28T05:16:26;34.40;;;17.10;;
24439;SDS011;12618;54.386;18.394;2023-12-28T05:18:58;35.50;;;18.20;;
24439;SDS011;12618;54.386;18.394;2023-12-28T05:21:30;31.90;;;17.50;;
24439;SDS011;12618;54.386;18.394;2023-12-28T05:24:02;36.20;;;17.10;;
24439;SDS011;12618;54.386;18.394;2023-12-28T05:26:34;34.00;;;17.20;;
24439;SDS011;12618;54.386;18.394;2023-12-28T05:29:07;36.40;;;18.00;;
24439;SDS011;12618;54.386;18.394;2023-12-28T05:31:38;32.20;;;17.40;;
24439;SDS011;12618;54.386;18.394;2023-12-28T05:34:10;30.10;;;17.30;;
24439;SDS011;12618;54.386;18.394;2023-12-28T05:36:43;33.50;;;17.30;;
24439;SDS011;12618;54.386;18.394;2023-12-28T05:39:17;34.10;;;16.90;;
24439;SDS011;12618;54.386;18.394;2023-12-28T05:41:49;27.60;;;15.50;;
24439;SDS011;12618;54.386;18.394;2023-12-28T05:44:22;33.90;;;16.70;;
24439;SDS011;12618;54.386;18.394;2023-12-28T05:46:54;30.90;;;16.00;;
24439;SDS011;12618;54.386;18.394;2023-12-28T05:49:25;56.50;;;27.90;;
24439;SDS011;12618;54.386;18.394;2023-12-28T05:52:00;34.80;;;19.50;;
24439;SDS011;12618;54.386;18.394;2023-12-28T05:54:32;43.40;;;25.50;;
24439;SDS011;12618;54.386;18.394;2023-12-28T05:57:04;40.50;;;22.60;;
24439;SDS011;12618;54.386;18.394;2023-12-28T05:59:39;48.40;;;26.60;;
24439;SDS011;12618;54.386;18.394;2023-12-28T06:09:22;39.00;;;20.90;;
24439;SDS011;12618;54.386;18.394;2023-12-28T06:11:54;35.90;;;19.30;;
24439;SDS011;12618;54.386;18.394;2023-12-28T06:14:25;36.20;;;20.60;;
24439;SDS011;12618;54.386;18.394;2023-12-28T06:16:58;32.20;;;17.10;;
24439;SDS011;12618;54.386;18.394;2023-12-28T06:19:29;28.70;;;17.60;;
24439;SDS011;12618;54.386;18.394;2023-12-28T06:22:02;31.30;;;17.20;;
24439;SDS011;12618;54.386;18.394;2023-12-28T06:24:37;31.50;;;17.80;;
24439;SDS011;12618;54.386;18.394;2023-12-28T06:27:10;33.50;;;18.60;;
24439;SDS011;12618;54.386;18.394;2023-12-28T06:29:43;32.00;;;16.50;;
24439;SDS011;12618;54.386;18.394;2023-12-28T06:32:15;31.00;;;17.50;;
24439;SDS011;12618;54.386;18.394;2023-12-28T06:34:47;34.40;;;17.70;;
24439;SDS011;12618;54.386;18.394;2023-12-28T06:37:20;30.20;;;17.40;;
24439;SDS011;12618;54.386;18.394;2023-12-28T06:39:52;30.20;;;17.80;;
24439;SDS011;12618;54.386;18.394;2023-12-28T06:42:24;29.30;;;17.30;;
24439;SDS011;12618;54.386;18.394;2023-12-28T06:44:56;32.70;;;17.20;;
24439;SDS011;12618;54.386;18.394;2023-12-28T06:47:28;28.10;;;16.60;;
24439;SDS011;12618;54.386;18.394;2023-12-28T06:50:00;30.70;;;17.20;;
24439;SDS011;12618;54.386;18.394;2023-12-28T06:52:32;35.00;;;17.20;;
24439;SDS011;12618;54.386;18.394;2023-12-28T06:55:04;32.50;;;16.50;;
24439;SDS011;12618;54.386;18.394;2023-12-28T06:57:36;26.10;;;15.90;;
24439;SDS011;12618;54.386;18.394;2023-12-28T07:00:08;31.90;;;16.50;;
24439;SDS011;12618;54.386;18.394;2023-12-28T07:02:41;30.70;;;16.70;;
24439;SDS011;12618;54.386;18.394;2023-12-28T07:05:13;29.30;;;16.00;;
24439;SDS011;12618;54.386;18.394;2023-12-28T07:07:45;30.80;;;17.50;;
24439;SDS011;12618;54.386;18.394;2023-12-28T07:10:17;31.90;;;17.20;;
24439;SDS011;12618;54.386;18.394;2023-12-28T07:12:49;30.90;;;16.90;;
24439;SDS011;12618;54.386;18.394;2023-12-28T07:15:21;28.60;;;16.10;;
24439;SDS011;12618;54.386;18.394;2023-12-28T07:17:53;28.30;;;15.70;;
24439;SDS011;12618;54.386;18.394;2023-12-28T07:20:25;28.50;;;16.30;;
24439;SDS011;12618;54.386;18.394;2023-12-28T07:22:57;30.20;;;16.30;;
24439;SDS011;12618;54.386;18.394;2023-12-28T07:25:29;26.60;;;15.70;;
24439;SDS011;12618;54.386;18.394;2023-12-28T07:28:01;29.30;;;16.20;;
24439;SDS011;12618;54.386;18.394;2023-12-28T07:30:33;27.00;;;15.60;;
24439;SDS011;12618;54.386;18.394;2023-12-28T07:33:05;29.10;;;16.00;;
24439;SDS011;12618;54.386;18.394;2023-12-28T07:35:37;29.90;;;16.40;;
24439;SDS011;12618;54.386;18.394;2023-12-28T07:38:09;27.00;;;15.70;;
24439;SDS011;12618;54.386;18.394;2023-12-28T07:40:41;27.80;;;15.50;;
24439;SDS011;12618;54.386;18.394;2023-12-28T07:43:13;29.90;;;15.40;;
24439;SDS011;12618;54.386;18.394;2023-12-28T07:45:45;31.00;;;16.10;;
24439;SDS011;12618;54.386;18.394;2023-12-28T07:48:17;28.40;;;16.30;;
24439;SDS011;12618;54.386;18.394;2023-12-28T07:50:49;26.20;;;15.80;;
24439;SDS011;12618;54.386;18.394;2023-12-28T07:53:23;29.80;;;15.80;;
24439;SDS011;12618;54.386;18.394;2023-12-28T07:55:56;28.70;;;14.80;;
24439;SDS011;12618;54.386;18.394;2023-12-28T07:58:28;29.20;;;15.70;;
24439;SDS011;12618;54.386;18.394;2023-12-28T08:01:00;28.10;;;15.60;;
24439;SDS011;12618;54.386;18.394;2023-12-28T08:10:38;25.60;;;14.70;;
24439;SDS011;12618;54.386;18.394;2023-12-28T08:13:10;27.40;;;14.60;;
24439;SDS011;12618;54.386;18.394;2023-12-28T08:15:42;25.90;;;15.10;;
24439;SDS011;12618;54.386;18.394;2023-12-28T08:18:14;26.40;;;14.70;;
24439;SDS011;12618;54.386;18.394;2023-12-28T08:20:46;24.40;;;14.50;;
24439;SDS011;12618;54.386;18.394;2023-12-28T08:23:18;22.90;;;14.00;;
24439;SDS011;12618;54.386;18.394;2023-12-28T08:25:49;23.40;;;14.20;;
24439;SDS011;12618;54.386;18.394;2023-12-28T08:28:21;26.00;;;16.00;;
24439;SDS011;12618;54.386;18.394;2023-12-28T08:30:55;25.20;;;15.10;;
24439;SDS011;12618;54.386;18.394;2023-12-28T08:33:28;27.80;;;14.90;;
24439;SDS011;12618;54.386;18.394;2023-12-28T08:36:03;25.00;;;14.90;;
24439;SDS011;12618;54.386;18.394;2023-12-28T08:38:35;24.00;;;14.30;;
24439;SDS011;12618;54.386;18.394;2023-12-28T08:41:07;23.40;;;15.00;;
24439;SDS011;12618;54.386;18.394;2023-12-28T08:43:48;25.30;;;15.70;;
24439;SDS011;12618;54.386;18.394;2023-12-28T08:46:23;22.90;;;13.90;;
24439;SDS011;12618;54.386;18.394;2023-12-28T08:49:13;23.10;;;14.10;;
24439;SDS011;12618;54.386;18.394;2023-12-28T08:51:47;22.50;;;14.10;;
24439;SDS011;12618;54.386;18.394;2023-12-28T08:54:20;25.90;;;16.10;;
24439;SDS011;12618;54.386;18.394;2023-12-28T08:56:52;22.70;;;13.70;;
24439;SDS011;12618;54.386;18.394;2023-12-28T08:59:27;23.10;;;14.60;;
24439;SDS011;12618;54.386;18.394;2023-12-28T09:01:59;24.50;;;14.80;;
24439;SDS011;12618;54.386;18.394;2023-12-28T09:04:34;27.30;;;15.40;;
24439;SDS011;12618;54.386;18.394;2023-12-28T09:07:07;22.50;;;14.20;;
24439;SDS011;12618;54.386;18.394;2023-12-28T09:09:38;25.10;;;15.20;;
24439;SDS011;12618;54.386;18.394;2023-12-28T09:12:11;24.90;;;14.40;;
24439;SDS011;12618;54.386;18.394;2023-12-28T09:14:44;24.50;;;15.30;;
24439;SDS011;12618;54.386;18.394;2023-12-28T09:17:22;26.40;;;16.00;;
24439;SDS011;12618;54.386;18.394;2023-12-28T09:19:58;25.80;;;15.30;;
24439;SDS011;12618;54.386;18.394;2023-12-28T09:22:38;22.00;;;14.70;;
24439;SDS011;12618;54.386;18.394;2023-12-28T09:25:11;26.60;;;15.50;;
24439;SDS011;12618;54.386;18.394;2023-12-28T09:27:44;26.40;;;15.90;;
24439;SDS011;12618;54.386;18.394;2023-12-28T09:30:17;23.30;;;15.70;;
24439;SDS011;12618;54.386;18.394;2023-12-28T09:33:31;26.30;;;15.80;;
24439;SDS011;12618;54.386;18.394;2023-12-28T09:36:10;26.60;;;16.40;;
24439;SDS011;12618;54.386;18.394;2023-12-28T09:38:44;25.00;;;15.70;;
24439;SDS011;12618;54.386;18.394;2023-12-28T09:41:18;24.80;;;15.00;;
24439;SDS011;12618;54.386;18.394;2023-12-28T09:44:07;24.60;;;14.90;;
24439;SDS011;12618;54.386;18.394;2023-12-28T09:46:42;23.70;;;15.30;;
24439;SDS011;12618;54.386;18.394;2023-12-28T09:49:41;24.30;;;15.30;;
24439;SDS011;12618;54.386;18.394;2023-12-28T09:52:27;22.40;;;14.90;;
24439;SDS011;12618;54.386;18.394;2023-12-28T09:55:07;25.00;;;15.10;;
24439;SDS011;12618;54.386;18.394;2023-12-28T09:57:51;23.00;;;13.30;;
24439;SDS011;12618;54.386;18.394;2023-12-28T10:00:47;22.60;;;14.00;;
24439;SDS011;12618;54.386;18.394;2023-12-28T10:03:29;21.40;;;12.90;;
24439;SDS011;12618;54.386;18.394;2023-12-28T10:06:01;22.60;;;13.90;;
24439;SDS011;12618;54.386;18.394;2023-12-28T10:08:33;20.20;;;13.40;;
24439;SDS011;12618;54.386;18.394;2023-12-28T10:11:06;21.80;;;14.20;;
24439;SDS011;12618;54.386;18.394;2023-12-28T10:13:39;24.90;;;15.80;;
24439;SDS011;12618;54.386;18.394;2023-12-28T10:16:11;25.00;;;14.50;;
24439;SDS011;12618;54.386;18.394;2023-12-28T10:18:44;24.80;;;15.50;;
24439;SDS011;12618;54.386;18.394;2023-12-28T10:24:18;22.70;;;13.90;;
24439;SDS011;12618;54.386;18.394;2023-12-28T10:26:59;19.00;;;13.00;;
24439;SDS011;12618;54.386;18.394;2023-12-28T10:30:13;24.00;;;14.40;;
24439;SDS011;12618;54.386;18.394;2023-12-28T10:33:05;21.00;;;13.70;;
24439;SDS011;12618;54.386;18.394;2023-12-28T10:35:52;20.10;;;13.00;;
24439;SDS011;12618;54.386;18.394;2023-12-28T10:39:06;20.60;;;13.10;;
24439;SDS011;12618;54.386;18.394;2023-12-28T10:41:42;23.60;;;12.80;;
24439;SDS011;12618;54.386;18.394;2023-12-28T10:44:42;24.80;;;14.60;;
24439;SDS011;12618;54.386;18.394;2023-12-28T10:47:21;20.10;;;13.20;;
24439;SDS011;12618;54.386;18.394;2023-12-28T10:50:12;23.40;;;12.60;;
24439;SDS011;12618;54.386;18.394;2023-12-28T10:52:46;20.60;;;13.00;;
24439;SDS011;12618;54.386;18.394;2023-12-28T10:55:30;18.10;;;11.60;;
24439;SDS011;12618;54.386;18.394;2023-12-28T10:58:37;20.10;;;12.10;;
24439;SDS011;12618;54.386;18.394;2023-12-28T11:01:37;20.90;;;12.90;;
24439;SDS011;12618;54.386;18.394;2023-12-28T11:07:19;15.60;;;10.80;;
24439;SDS011;12618;54.386;18.394;2023-12-28T11:10:00;16.70;;;11.20;;
24439;SDS011;12618;54.386;18.394;2023-12-28T11:12:59;15.20;;;10.30;;
24439;SDS011;12618;54.386;18.394;2023-12-28T11:15:33;15.40;;;10.50;;
24439;SDS011;12618;54.386;18.394;2023-12-28T11:18:08;13.90;;;9.80;;
24439;SDS011;12618;54.386;18.394;2023-12-28T11:20:41;16.60;;;10.50;;
24439;SDS011;12618;54.386;18.394;2023-12-28T11:23:15;17.30;;;10.50;;
24439;SDS011;12618;54.386;18.394;2023-12-28T11:25:48;15.80;;;10.30;;
24439;SDS011;12618;54.386;18.394;2023-12-28T11:28:20;15.50;;;10.80;;
24439;SDS011;12618;54.386;18.394;2023-12-28T11:30:56;15.30;;;9.80;;
24439;SDS011;12618;54.386;18.394;2023-12-28T11:33:30;15.50;;;10.20;;
24439;SDS011;12618;54.386;18.394;2023-12-28T11:36:07;13.90;;;9.70;;
24439;SDS011;12618;54.386;18.394;2023-12-28T11:38:40;20.40;;;10.80;;
24439;SDS011;12618;54.386;18.394;2023-12-28T11:41:16;16.90;;;9.80;;
24439;SDS011;12618;54.386;18.394;2023-12-28T11:43:52;13.60;;;9.80;;
24439;SDS011;12618;54.386;18.394;2023-12-28T11:46:25;16.30;;;10.30;;
24439;SDS011;12618;54.386;18.394;2023-12-28T11:49:06;14.20;;;10.10;;
24439;SDS011;12618;54.386;18.394;2023-12-28T11:51:40;15.20;;;10.00;;
24439;SDS011;12618;54.386;18.394;2023-12-28T11:54:12;13.90;;;9.90;;
24439;SDS011;12618;54.386;18.394;2023-12-28T11:56:44;12.80;;;9.30;;
24439;SDS011;12618;54.386;18.394;2023-12-28T11:59:17;14.80;;;8.50;;
24439;SDS011;12618;54.386;18.394;2023-12-28T12:01:52;14.90;;;8.60;;
24439;SDS011;12618;54.386;18.394;2023-12-28T12:04:25;14.10;;;8.20;;
24439;SDS011;12618;54.386;18.394;2023-12-28T12:06:57;13.50;;;7.90;;
24439;SDS011;12618;54.386;18.394;2023-12-28T12:09:34;11.50;;;7.70;;
24439;SDS011;12618;54.386;18.394;2023-12-28T12:12:07;10.50;;;7.40;;
24439;SDS011;12618;54.386;18.394;2023-12-28T12:14:39;12.00;;;7.60;;
24439;SDS011;12618;54.386;18.394;2023-12-28T12:17:11;12.60;;;7.70;;
24439;SDS011;12618;54.386;18.394;2023-12-28T12:19:44;14.30;;;7.70;;
24439;SDS011;12618;54.386;18.394;2023-12-28T12:22:20;12.80;;;7.80;;
24439;SDS011;12618;54.386;18.394;2023-12-28T12:24:56;11.00;;;7.40;;
24439;SDS011;12618;54.386;18.394;2023-12-28T12:27:29;12.20;;;7.60;;
24439;SDS011;12618;54.386;18.394;2023-12-28T12:30:02;12.70;;;8.30;;
24439;SDS011;12618;54.386;18.394;2023-12-28T12:32:34;11.10;;;7.00;;
24439;SDS011;12618;54.386;18.394;2023-12-28T12:35:14;9.00;;;6.80;;
24439;SDS011;12618;54.386;18.394;2023-12-28T12:37:49;11.20;;;6.50;;
24439;SDS011;12618;54.386;18.394;2023-12-28T12:40:22;11.80;;;6.70;;
24439;SDS011;12618;54.386;18.394;2023-12-28T12:42:54;10.70;;;6.20;;
24439;SDS011;12618;54.386;18.394;2023-12-28T12:45:27;10.60;;;6.50;;
24439;SDS011;12618;54.386;18.394;2023-12-28T12:48:00;9.20;;;6.00;;
24439;SDS011;12618;54.386;18.394;2023-12-28T12:50:32;9.60;;;6.10;;
24439;SDS011;12618;54.386;18.394;2023-12-28T12:53:04;10.00;;;6.20;;
24439;SDS011;12618;54.386;18.394;2023-12-28T12:55:36;8.90;;;5.40;;
24439;SDS011;12618;54.386;18.394;2023-12-28T12:58:14;10.50;;;6.00;;
24439;SDS011;12618;54.386;18.394;2023-12-28T13:00:48;9.40;;;5.70;;
24439;SDS011;12618;54.386;18.394;2023-12-28T13:03:21;10.20;;;6.00;;
24439;SDS011;12618;54.386;18.394;2023-12-28T13:05:52;8.40;;;5.20;;
24439;SDS011;12618;54.386;18.394;2023-12-28T13:08:24;12.00;;;5.30;;
24439;SDS011;12618;54.386;18.394;2023-12-28T13:10:56;8.90;;;5.20;;
24439;SDS011;12618;54.386;18.394;2023-12-28T13:13:28;9.70;;;5.10;;
24439;SDS011;12618;54.386;18.394;2023-12-28T13:16:00;7.20;;;4.90;;
24439;SDS011;12618;54.386;18.394;2023-12-28T13:18:33;9.30;;;5.60;;
24439;SDS011;12618;54.386;18.394;2023-12-28T13:23:38;9.50;;;5.90;;
24439;SDS011;12618;54.386;18.394;2023-12-28T13:26:10;10.00;;;6.20;;
24439;SDS011;12618;54.386;18.394;2023-12-28T13:28:42;10.50;;;6.40;;
24439;SDS011;12618;54.386;18.394;2023-12-28T13:31:14;11.10;;;6.10;;
24439;SDS011;12618;54.386;18.394;2023-12-28T13:33:46;11.80;;;6.30;;
24439;SDS011;12618;54.386;18.394;2023-12-28T13:36:19;8.90;;;6.00;;
24439;SDS011;12618;54.386;18.394;2023-12-28T13:38:51;10.10;;;6.70;;
24439;SDS011;12618;54.386;18.394;2023-12-28T13:41:23;10.30;;;6.00;;
24439;SDS011;12618;54.386;18.394;2023-12-28T13:43:55;10.10;;;6.00;;
24439;SDS011;12618;54.386;18.394;2023-12-28T13:46:33;10.40;;;6.80;;
24439;SDS011;12618;54.386;18.394;2023-12-28T13:49:05;11.20;;;6.90;;
24439;SDS011;12618;54.386;18.394;2023-12-28T13:51:39;9.80;;;6.10;;
24439;SDS011;12618;54.386;18.394;2023-12-28T13:54:11;9.60;;;5.90;;
24439;SDS011;12618;54.386;18.394;2023-12-28T13:56:44;10.40;;;5.90;;
24439;SDS011;12618;54.386;18.394;2023-12-28T13:59:16;10.40;;;6.10;;
24439;SDS011;12618;54.386;18.394;2023-12-28T14:01:48;10.70;;;5.70;;
24439;SDS011;12618;54.386;18.394;2023-12-28T14:04:20;9.90;;;6.70;;
24439;SDS011;12618;54.386;18.394;2023-12-28T14:06:52;10.10;;;6.10;;
24439;SDS011;12618;54.386;18.394;2023-12-28T14:09:25;10.70;;;6.50;;
24439;SDS011;12618;54.386;18.394;2023-12-28T14:12:08;13.50;;;6.40;;
24439;SDS011;12618;54.386;18.394;2023-12-28T14:14:51;13.80;;;7.20;;
24439;SDS011;12618;54.386;18.394;2023-12-28T14:17:24;12.00;;;6.80;;
24439;SDS011;12618;54.386;18.394;2023-12-28T14:19:57;9.60;;;6.30;;
24439;SDS011;12618;54.386;18.394;2023-12-28T14:22:29;13.70;;;6.60;;
24439;SDS011;12618;54.386;18.394;2023-12-28T14:25:02;15.90;;;6.90;;
24439;SDS011;12618;54.386;18.394;2023-12-28T14:27:36;11.50;;;6.80;;
24439;SDS011;12618;54.386;18.394;2023-12-28T14:30:09;11.20;;;6.70;;
24439;SDS011;12618;54.386;18.394;2023-12-28T14:32:42;11.30;;;6.70;;
24439;SDS011;12618;54.386;18.394;2023-12-28T14:35:14;13.70;;;7.40;;
24439;SDS011;12618;54.386;18.394;2023-12-28T14:37:49;12.30;;;7.90;;
24439;SDS011;12618;54.386;18.394;2023-12-28T14:40:22;11.20;;;8.00;;
24439;SDS011;12618;54.386;18.394;2023-12-28T14:42:58;11.40;;;6.90;;
24439;SDS011;12618;54.386;18.394;2023-12-28T14:45:42;11.20;;;7.30;;
24439;SDS011;12618;54.386;18.394;2023-12-28T14:48:16;10.70;;;6.60;;
24439;SDS011;12618;54.386;18.394;2023-12-28T14:50:49;10.20;;;6.40;;
24439;SDS011;12618;54.386;18.394;2023-12-28T14:53:21;10.80;;;7.50;;
24439;SDS011;12618;54.386;18.394;2023-12-28T14:58:26;10.80;;;7.30;;
24439;SDS011;12618;54.386;18.394;2023-12-28T15:00:58;13.20;;;7.60;;
24439;SDS011;12618;54.386;18.394;2023-12-28T15:03:31;16.50;;;8.60;;
24439;SDS011;12618;54.386;18.394;2023-12-28T15:06:04;12.80;;;7.30;;
24439;SDS011;12618;54.386;18.394;2023-12-28T15:08:37;11.80;;;7.10;;
24439;SDS011;12618;54.386;18.394;2023-12-28T15:11:09;10.50;;;6.50;;
24439;SDS011;12618;54.386;18.394;2023-12-28T15:13:42;10.70;;;6.50;;
24439;SDS011;12618;54.386;18.394;2023-12-28T15:16:14;10.60;;;6.40;;
24439;SDS011;12618;54.386;18.394;2023-12-28T15:18:46;14.20;;;7.20;;
24439;SDS011;12618;54.386;18.394;2023-12-28T15:21:20;13.70;;;7.60;;